Springfield-Branson National Airport

Airport
ICAO code: 
KSGF
Summary
ICAO Region: 
NAM
Territory: 
Location: 
Springfield, Missouri,
Coordinates: 
Aerial View: 
37° 14' 18.177" N, 93° 23' 49.732" W
Metar
Observation
KSGF 020852Z 22007KT 10SM CLR 08/03 A3002 RMK AO2 SLP161 T00830033 56005
Station
Springfield, Springfield Regional Airport
Date/Time
2021-12-02 08:52:00
Wind direction
220°
Wind speed
07 kts
Lowest cloud amount
n/a
Temperature
8.3°C
Dew point
3.3°C
Humidity
70%
Weather condition
n/a

Description

Springfield-Branson National Airport, formerly Springfield-Greene County Airport, Springfield Municipal Airport and Springfield-Branson Regional Airport, is a public airport located 8 km northwest of the central business district of Springfield, a city in Greene County, Missouri.

Climatology

Humid “subtropical” climate (Köppen climate classification Cfa) - characterized by hot, humid summers and cool winters. Significant amounts of precipitation occur in all seasons in most areas. Winter rainfall (and sometimes snowfall) is associated with large storms that the westerlies steer from west to east. Most summer rainfall occurs during thunderstorms.

Runways

Designator Length Width Surface Rops
2/20 2135 46 CON Yes/Yes
14/32 2438 46 PEM Yes/Yes
Airport map: 
Aerial View: 

SKYbrary Partners:

Safety knowledge contributed by: